Time;durP1;ratioP1;P1;durP2;ratioP2;P2;SDS_P1;SDS_P2;PMS_P1;PMS_P2;Temp;Humidity;BMP_temperature;BMP_pressure;BME280_temperature;BME280_humidity;BME280_pressure;Samples;Min_cycle;Max_cycle;Signal;HPM_P1;HPM_P2
2021/08/31 00:00:42;;;;;;;1999.90;999.90;;;15.90;99.90;;;;;;5079173;28;20411;-85
2021/08/31 00:03:11;;;;;;;1999.90;999.90;;;15.90;99.90;;;;;;5078594;28;20529;-85
2021/08/31 00:05:36;;;;;;;1999.90;999.90;;;15.90;99.90;;;;;;5060136;28;20176;-84
2021/08/31 00:08:02;;;;;;;1999.90;999.90;;;15.90;99.90;;;;;;5078914;28;20413;-85
2021/08/31 00:10:28;;;;;;;1999.90;999.90;;;15.90;99.90;;;;;;5078682;28;20166;-85
2021/08/31 00:12:54;;;;;;;1999.90;999.90;;;15.90;99.90;;;;;;5060483;28;20173;-86
2021/08/31 00:15:19;;;;;;;1999.90;999.90;;;15.90;99.90;;;;;;5078482;28;20171;-85
2021/08/31 00:17:45;;;;;;;1999.90;999.90;;;15.80;99.90;;;;;;5060998;28;20168;-85
2021/08/31 00:20:11;;;;;;;1999.90;999.90;;;15.80;99.90;;;;;;5079357;28;20192;-85
2021/08/31 00:22:37;;;;;;;1999.90;999.90;;;15.80;99.90;;;;;;5077916;28;20162;-85
2021/08/31 00:25:05;;;;;;;1999.90;999.90;;;15.70;99.90;;;;;;5078057;28;20415;-85
2021/08/31 00:27:31;;;;;;;1999.90;999.90;;;15.70;99.90;;;;;;5078364;28;20439;-85
2021/08/31 00:29:57;;;;;;;1999.90;999.90;;;15.70;99.90;;;;;;5078806;28;20410;-85
2021/08/31 00:32:22;;;;;;;1999.90;999.90;;;15.70;99.90;;;;;;5079820;28;20169;-85
2021/08/31 00:34:48;;;;;;;1999.90;999.90;;;15.70;99.90;;;;;;5078638;28;20532;-85
2021/08/31 00:37:14;;;;;;;1999.90;999.90;;;15.70;99.90;;;;;;5077952;28;20186;-85
2021/08/31 00:39:39;;;;;;;1999.90;999.90;;;15.70;99.90;;;;;;5078554;28;20761;-85
2021/08/31 00:42:05;;;;;;;1999.90;999.90;;;15.70;99.90;;;;;;5078326;28;20531;-86
2021/08/31 00:44:31;;;;;;;1999.90;999.90;;;15.70;99.90;;;;;;5059949;28;20528;-85
2021/08/31 00:47:05;;;;;;;1999.90;999.90;;;15.60;99.90;;;;;;5078236;28;20185;-85
2021/08/31 00:49:34;;;;;;;1999.90;999.90;;;15.60;99.90;;;;;;5059559;28;20215;-85
2021/08/31 00:52:00;;;;;;;1999.90;999.90;;;15.60;99.90;;;;;;5061174;28;20412;-85
2021/08/31 00:54:27;;;;;;;1999.90;999.90;;;15.60;99.90;;;;;;5059814;28;20416;-85
2021/08/31 00:56:54;;;;;;;1999.90;999.90;;;15.50;99.90;;;;;;5060412;28;20432;-85
2021/08/31 00:59:21;;;;;;;1999.90;999.90;;;15.50;99.90;;;;;;5077391;28;21003;-85
2021/08/31 01:01:51;;;;;;;1999.90;999.90;;;15.50;99.90;;;;;;5077566;28;20415;-85
2021/08/31 01:04:21;;;;;;;1999.90;999.90;;;15.40;99.90;;;;;;5061324;28;20856;-85
2021/08/31 01:06:50;;;;;;;1999.90;999.90;;;15.40;99.90;;;;;;5061242;28;20424;-85
2021/08/31 01:09:16;;;;;;;1999.90;999.90;;;15.40;99.90;;;;;;5060996;28;20426;-85
2021/08/31 01:11:42;;;;;;;1999.90;999.90;;;15.40;99.90;;;;;;5079101;28;20411;-85
2021/08/31 01:14:08;;;;;;;1999.90;999.90;;;15.40;99.90;;;;;;5079162;28;20406;-85
2021/08/31 01:16:38;;;;;;;1999.90;999.90;;;15.40;99.90;;;;;;5078457;28;20212;-85
2021/08/31 01:19:03;;;;;;;1999.90;999.90;;;15.40;99.90;;;;;;5061107;28;20566;-85
2021/08/31 01:21:30;;;;;;;1999.90;999.90;;;15.40;99.90;;;;;;5061574;28;20438;-85
2021/08/31 01:23:56;;;;;;;1999.90;999.90;;;15.30;99.90;;;;;;5078602;28;20642;-85
2021/08/31 01:26:22;;;;;;;1999.90;999.90;;;15.30;99.90;;;;;;5078468;28;20444;-85
2021/08/31 01:28:47;;;;;;;1999.90;999.90;;;15.30;99.90;;;;;;5079585;28;20395;-85
2021/08/31 01:31:13;;;;;;;1999.90;999.90;;;15.30;99.90;;;;;;5059525;28;20176;-85
2021/08/31 01:33:39;;;;;;;1999.90;999.90;;;15.30;99.90;;;;;;5078324;28;20176;-85
2021/08/31 01:36:22;;;;;;;1999.90;999.90;;;15.30;99.90;;;;;;5060239;28;20957;-85
2021/08/31 01:38:51;;;;;;;1999.90;999.90;;;15.30;99.90;;;;;;5078445;28;20261;-85
2021/08/31 01:41:17;;;;;;;1999.90;999.90;;;15.20;99.90;;;;;;5059772;28;20410;-85
2021/08/31 01:43:44;;;;;;;1999.90;999.90;;;15.20;99.90;;;;;;5078476;28;20988;-85
2021/08/31 01:46:10;;;;;;;1999.90;999.90;;;15.20;99.90;;;;;;5078168;28;20416;-85
2021/08/31 01:48:35;;;;;;;1999.90;999.90;;;15.20;99.90;;;;;;5078783;28;20400;-85
2021/08/31 01:51:01;;;;;;;1999.90;999.90;;;15.20;99.90;;;;;;5077919;28;20406;-85
2021/08/31 01:53:27;;;;;;;1999.90;999.90;;;15.20;99.90;;;;;;5078101;28;20222;-85
2021/08/31 01:55:53;;;;;;;1999.90;999.90;;;15.20;99.90;;;;;;5078729;28;20419;-85
2021/08/31 01:58:18;;;;;;;1999.90;999.90;;;15.20;99.90;;;;;;5078763;28;20156;-85
2021/08/31 02:00:44;;;;;;;1999.90;999.90;;;15.20;99.90;;;;;;5079966;28;20280;-85
2021/08/31 02:03:10;;;;;;;1999.90;999.90;;;15.20;99.90;;;;;;5079667;28;20165;-85
2021/08/31 02:05:35;;;;;;;1999.90;999.90;;;15.10;99.90;;;;;;5079532;28;20203;-85
2021/08/31 02:08:01;;;;;;;1999.90;999.90;;;15.20;99.90;;;;;;5064777;28;20168;-85
2021/08/31 02:10:27;;;;;;;1999.90;999.90;;;15.20;99.90;;;;;;5081973;28;20166;-85
2021/08/31 02:12:53;;;;;;;1999.90;999.90;;;15.20;99.90;;;;;;5082263;28;20417;-85
2021/08/31 02:15:19;;;;;;;1999.90;999.90;;;15.20;99.90;;;;;;5084088;28;20167;-85
2021/08/31 02:17:45;;;;;;;1999.90;999.90;;;15.20;99.90;;;;;;5083188;28;20406;-85
2021/08/31 02:20:11;;;;;;;1999.90;999.90;;;15.10;99.90;;;;;;5082664;28;20447;-85
2021/08/31 02:22:41;;;;;;;1999.90;999.90;;;15.20;99.90;;;;;;5083073;28;20406;-86
2021/08/31 02:25:07;;;;;;;1999.90;999.90;;;15.20;99.90;;;;;;5082347;28;20420;-85
2021/08/31 02:27:33;;;;;;;1999.90;999.90;;;15.10;99.90;;;;;;5064372;28;20491;-85
2021/08/31 02:29:59;;;;;;;1999.90;999.90;;;15.10;99.90;;;;;;5081766;28;20446;-85
2021/08/31 02:32:25;;;;;;;1999.90;999.90;;;15.10;99.90;;;;;;5064824;28;20418;-85
2021/08/31 02:34:50;;;;;;;1999.90;999.90;;;15.10;99.90;;;;;;5083539;28;20164;-85
2021/08/31 02:37:16;;;;;;;1999.90;999.90;;;15.00;99.90;;;;;;5082560;28;20266;-85
2021/08/31 02:39:42;;;;;;;1999.90;999.90;;;15.00;99.90;;;;;;5082494;28;20189;-85
2021/08/31 02:42:08;;;;;;;1999.90;999.90;;;15.00;99.90;;;;;;5064096;28;20172;-85
2021/08/31 02:44:34;;;;;;;1999.90;999.90;;;15.00;99.90;;;;;;5081564;28;20610;-85
2021/08/31 02:47:00;;;;;;;1999.90;999.90;;;15.00;99.90;;;;;;5082029;28;20446;-85
2021/08/31 02:49:25;;;;;;;1999.90;999.90;;;15.00;99.90;;;;;;5081663;28;20406;-85
2021/08/31 02:51:51;;;;;;;1999.90;999.90;;;15.00;99.90;;;;;;5081959;28;20623;-85
2021/08/31 02:54:17;;;;;;;1999.90;999.90;;;14.90;99.90;;;;;;5064073;28;20168;-85
2021/08/31 02:56:43;;;;;;;1999.90;999.90;;;15.00;99.90;;;;;;5082013;28;20805;-85
2021/08/31 02:59:09;;;;;;;1999.90;999.90;;;14.90;99.90;;;;;;5081771;28;20180;-85
2021/08/31 03:01:37;;;;;;;1999.90;999.90;;;14.90;99.90;;;;;;5082233;28;20486;-85
2021/08/31 03:04:04;;;;;;;1999.90;999.90;;;14.90;99.90;;;;;;5081205;28;20152;-85
2021/08/31 03:06:31;;;;;;;1999.90;999.90;;;14.90;99.90;;;;;;5063602;28;20434;-86
2021/08/31 03:08:58;;;;;;;1999.90;999.90;;;14.90;99.90;;;;;;5063896;28;20410;-85
2021/08/31 03:11:24;;;;;;;1999.90;999.90;;;14.90;99.90;;;;;;5081364;28;20451;-86
2021/08/31 03:13:50;;;;;;;1999.90;999.90;;;14.90;99.90;;;;;;5082344;28;20450;-85
2021/08/31 03:16:16;;;;;;;1999.90;999.90;;;14.90;99.90;;;;;;5081382;28;20425;-85
2021/08/31 03:18:43;;;;;;;1999.90;999.90;;;14.90;99.90;;;;;;5081672;28;20478;-86
2021/08/31 03:21:09;;;;;;;1999.90;999.90;;;14.90;99.90;;;;;;5081294;28;20413;-85
2021/08/31 03:23:34;;;;;;;1999.90;999.90;;;14.90;99.90;;;;;;5136417;22;20506;-84
2021/08/31 03:26:00;;;;;;;1999.90;999.90;;;14.90;99.90;;;;;;5038480;28;20814;-83
2021/08/31 03:28:26;;;;;;;1999.90;999.90;;;14.90;99.90;;;;;;5039196;28;20202;-83
2021/08/31 03:30:51;;;;;;;1999.90;999.90;;;14.90;99.90;;;;;;5038588;28;20188;-83
2021/08/31 03:33:17;;;;;;;1999.90;999.90;;;14.90;99.90;;;;;;5039483;28;20288;-84
2021/08/31 03:35:43;;;;;;;1999.90;999.90;;;14.90;99.90;;;;;;5038918;28;20177;-83
2021/08/31 03:38:09;;;;;;;1999.90;999.90;;;14.90;99.90;;;;;;5038922;28;20404;-83
2021/08/31 03:40:35;;;;;;;1999.90;999.90;;;14.80;99.90;;;;;;5037920;28;20463;-84
2021/08/31 03:43:00;;;;;;;1999.90;999.90;;;14.80;99.90;;;;;;5039111;28;20267;-84
2021/08/31 03:45:29;;;;;;;1999.90;999.90;;;14.80;99.90;;;;;;5020993;28;20439;-84
2021/08/31 03:47:54;;;;;;;1999.90;999.90;;;14.80;99.90;;;;;;5021106;28;20188;-83
2021/08/31 03:50:20;;;;;;;1999.90;999.90;;;14.80;99.90;;;;;;5038687;28;20412;-83
2021/08/31 03:52:46;;;;;;;1999.90;999.90;;;14.80;99.90;;;;;;5038212;28;20601;-83
2021/08/31 03:55:11;;;;;;;1999.90;999.90;;;14.80;99.90;;;;;;5021158;28;20693;-83
2021/08/31 03:57:37;;;;;;;1999.90;999.90;;;14.80;99.90;;;;;;5038775;28;20664;-83
2021/08/31 04:00:05;;;;;;;1999.90;999.90;;;14.80;99.90;;;;;;5038490;28;20264;-84
2021/08/31 04:02:30;;;;;;;1999.90;999.90;;;14.70;99.90;;;;;;5037795;28;20158;-83
2021/08/31 04:04:56;;;;;;;1999.90;999.90;;;14.70;99.90;;;;;;5037990;28;20481;-83
2021/08/31 04:07:21;;;;;;;1999.90;999.90;;;14.70;99.90;;;;;;5038900;28;20186;-83
2021/08/31 04:09:47;;;;;;;1999.90;999.90;;;14.70;99.90;;;;;;5038673;28;20177;-83
2021/08/31 04:12:13;;;;;;;1999.90;999.90;;;14.70;99.90;;;;;;5037998;28;20241;-83
2021/08/31 04:14:39;;;;;;;1999.90;999.90;;;14.70;99.90;;;;;;5038297;28;20162;-83
2021/08/31 04:17:05;;;;;;;1999.90;999.90;;;14.70;99.90;;;;;;5038499;28;20473;-84
2021/08/31 04:19:30;;;;;;;1999.90;999.90;;;14.70;99.90;;;;;;5037880;28;20233;-84
2021/08/31 04:21:56;;;;;;;1999.90;999.90;;;14.70;99.90;;;;;;5038006;28;20532;-84
2021/08/31 04:26:49;;;;;;;1999.90;999.90;;;14.70;99.90;;;;;;5036336;28;20220;-83
2021/08/31 04:29:15;;;;;;;1999.90;999.90;;;14.70;99.90;;;;;;5037790;28;20767;-83
2021/08/31 04:31:41;;;;;;;1999.90;999.90;;;14.70;99.90;;;;;;5037993;28;20169;-83
2021/08/31 04:34:06;;;;;;;1999.90;999.90;;;14.70;99.90;;;;;;5038080;28;20632;-83
2021/08/31 04:36:32;;;;;;;1999.90;999.90;;;14.70;99.90;;;;;;5037950;28;20189;-83
2021/08/31 04:38:57;;;;;;;1999.90;999.90;;;14.70;99.90;;;;;;5038090;28;20632;-83
2021/08/31 04:41:23;;;;;;;1999.90;999.90;;;14.70;99.90;;;;;;5037597;28;20655;-83
2021/08/31 04:43:49;;;;;;;1999.90;999.90;;;14.70;99.90;;;;;;5037796;28;20164;-83
2021/08/31 04:46:15;;;;;;;1999.90;999.90;;;14.70;99.90;;;;;;5020392;28;20282;-83
2021/08/31 04:48:40;;;;;;;1999.90;999.90;;;14.80;99.90;;;;;;5037414;28;20165;-83
2021/08/31 04:51:06;;;;;;;1999.90;999.90;;;14.80;99.90;;;;;;5020217;28;20172;-83
2021/08/31 04:53:32;;;;;;;1999.90;999.90;;;14.80;99.90;;;;;;5036371;28;20168;-83
2021/08/31 04:55:58;;;;;;;1999.90;999.90;;;14.80;99.90;;;;;;5036873;28;20923;-83
2021/08/31 04:58:23;;;;;;;1999.90;999.90;;;14.80;99.90;;;;;;5037989;28;20261;-83
2021/08/31 05:00:49;;;;;;;1999.90;999.90;;;14.80;99.90;;;;;;5037600;28;20755;-83
2021/08/31 05:03:15;;;;;;;1999.90;999.90;;;14.80;99.90;;;;;;5037323;28;20170;-83
2021/08/31 05:05:42;;;;;;;1999.90;999.90;;;14.90;99.90;;;;;;5037802;28;20515;-83
2021/08/31 05:08:08;;;;;;;1999.90;999.90;;;14.90;99.90;;;;;;5036974;28;20165;-83
2021/08/31 05:10:34;;;;;;;1999.90;999.90;;;14.90;99.90;;;;;;5036900;28;20566;-83
2021/08/31 05:13:00;;;;;;;1999.90;999.90;;;14.90;99.90;;;;;;5037353;28;20933;-83
2021/08/31 05:15:26;;;;;;;1999.90;999.90;;;14.90;99.90;;;;;;5036902;28;20405;-83
2021/08/31 05:17:52;;;;;;;1999.90;999.90;;;15.00;99.90;;;;;;5037871;28;20169;-83
2021/08/31 05:20:18;;;;;;;1999.90;999.90;;;15.00;99.90;;;;;;5037385;28;20440;-83
2021/08/31 05:22:44;;;;;;;1999.90;999.90;;;15.00;99.90;;;;;;5037145;28;20895;-83
2021/08/31 05:25:10;;;;;;;1999.90;999.90;;;15.00;99.90;;;;;;5036599;28;20173;-83
2021/08/31 05:27:35;;;;;;;1999.90;999.90;;;15.00;99.90;;;;;;5036957;28;20772;-83
2021/08/31 05:30:02;;;;;;;1999.90;999.90;;;15.00;99.90;;;;;;5036965;28;20165;-83
2021/08/31 05:32:28;;;;;;;1999.90;999.90;;;15.00;99.90;;;;;;5037207;28;20436;-83
2021/08/31 05:34:54;;;;;;;1999.90;999.90;;;15.00;99.90;;;;;;5037037;28;20418;-83
2021/08/31 05:37:19;;;;;;;1999.90;999.90;;;15.00;99.90;;;;;;5037189;28;20621;-83
2021/08/31 05:39:45;;;;;;;1999.90;999.90;;;15.10;99.90;;;;;;5019553;28;20444;-83
2021/08/31 05:42:11;;;;;;;1999.90;999.90;;;15.10;99.90;;;;;;5041017;28;20219;-83
2021/08/31 05:44:39;;;;;;;1999.90;999.90;;;15.10;99.90;;;;;;5023073;28;20173;-83
2021/08/31 05:47:05;;;;;;;1999.90;999.90;;;15.20;99.90;;;;;;5040906;28;20424;-83
2021/08/31 05:49:32;;;;;;;1999.90;999.90;;;15.20;99.90;;;;;;5040634;28;20791;-83
2021/08/31 05:51:58;;;;;;;1999.90;999.90;;;15.20;99.90;;;;;;5040588;28;20816;-83
2021/08/31 05:54:26;;;;;;;1999.90;999.90;;;15.20;99.90;;;;;;5023513;28;20927;-83
2021/08/31 05:56:55;;;;;;;1999.90;999.90;;;15.20;99.90;;;;;;5041138;28;20428;-83
2021/08/31 05:59:21;;;;;;;1999.90;999.90;;;15.30;99.90;;;;;;5040572;28;20535;-83
2021/08/31 06:01:46;;;;;;;1999.90;999.90;;;15.40;99.90;;;;;;5022565;28;20443;-84
2021/08/31 06:04:15;;;;;;;1999.90;999.90;;;15.30;99.90;;;;;;5040540;28;20229;-83
2021/08/31 06:06:41;;;;;;;1999.90;999.90;;;15.30;99.90;;;;;;5022660;28;20185;-83
2021/08/31 06:09:07;;;;;;;1999.90;999.90;;;15.40;99.90;;;;;;5041161;28;20811;-83
2021/08/31 06:11:44;;;;;;;1999.90;999.90;;;15.40;99.90;;;;;;5040538;28;20194;-83
2021/08/31 06:14:10;;;;;;;1999.90;999.90;;;15.40;99.90;;;;;;5040646;28;20388;-83
2021/08/31 06:16:35;;;;;;;1999.90;999.90;;;15.50;99.90;;;;;;5040152;28;20950;-83
2021/08/31 06:19:01;;;;;;;1999.90;999.90;;;15.50;99.90;;;;;;5006044;28;20185;-83
2021/08/31 06:21:28;;;;;;;1999.90;999.90;;;15.40;99.90;;;;;;5039792;28;20169;-83
2021/08/31 06:23:54;;;;;;;1999.90;999.90;;;15.50;99.90;;;;;;5022487;28;20484;-83
2021/08/31 06:26:19;;;;;;;1999.90;999.90;;;15.50;99.90;;;;;;5039478;28;20514;-83
2021/08/31 06:28:45;;;;;;;1999.90;999.90;;;15.50;99.90;;;;;;5039462;28;20165;-84
2021/08/31 06:31:11;;;;;;;1999.90;999.90;;;15.50;99.90;;;;;;5040129;28;20172;-83
2021/08/31 06:33:36;;;;;;;1999.90;999.90;;;15.50;99.90;;;;;;5039537;28;20216;-83
2021/08/31 06:36:02;;;;;;;1999.90;999.90;;;15.50;99.90;;;;;;5039818;28;20183;-83
2021/08/31 06:38:28;;;;;;;1999.90;999.90;;;15.50;99.90;;;;;;5040363;28;20158;-83
2021/08/31 06:40:54;;;;;;;1999.90;999.90;;;15.50;99.90;;;;;;5039609;28;20977;-83
2021/08/31 06:43:19;;;;;;;1999.90;999.90;;;15.50;99.90;;;;;;5022716;28;20166;-84
2021/08/31 06:45:45;;;;;;;1999.90;999.90;;;15.50;99.90;;;;;;5040341;28;20234;-83
2021/08/31 06:48:11;;;;;;;1999.90;999.90;;;15.50;99.90;;;;;;5021399;28;20533;-83
2021/08/31 06:50:37;;;;;;;1999.90;999.90;;;15.50;99.90;;;;;;5021024;28;20490;-83
2021/08/31 06:53:03;;;;;;;1999.90;999.90;;;15.50;99.90;;;;;;5039453;28;20172;-84
2021/08/31 06:55:29;;;;;;;1999.90;999.90;;;15.50;99.90;;;;;;5039647;28;20786;-84
2021/08/31 06:57:55;;;;;;;1999.90;999.90;;;15.50;99.90;;;;;;5039764;28;20207;-83
2021/08/31 07:00:20;;;;;;;1999.90;999.90;;;15.60;99.90;;;;;;5021699;28;20196;-84
2021/08/31 07:02:46;;;;;;;1999.90;999.90;;;15.60;99.90;;;;;;5039674;28;20474;-83
2021/08/31 07:05:12;;;;;;;1999.90;999.90;;;15.50;99.90;;;;;;5021999;28;20166;-83
2021/08/31 07:07:38;;;;;;;1999.90;999.90;;;15.60;99.90;;;;;;5039695;28;20187;-83
2021/08/31 07:10:04;;;;;;;1999.90;999.90;;;15.60;99.90;;;;;;5039853;28;20169;-84
2021/08/31 07:12:30;;;;;;;1999.90;999.90;;;15.70;99.90;;;;;;5039124;28;20190;-83
2021/08/31 07:14:58;;;;;;;1999.90;999.90;;;15.70;99.90;;;;;;5021153;28;20950;-83
2021/08/31 07:17:23;;;;;;;1999.90;999.90;;;15.70;99.90;;;;;;5039398;28;20203;-83
2021/08/31 07:19:49;;;;;;;1999.90;999.90;;;15.70;99.90;;;;;;5039058;28;20441;-83
2021/08/31 07:22:17;;;;;;;1999.90;999.90;;;15.70;99.90;;;;;;5039032;28;20243;-83
2021/08/31 07:24:43;;;;;;;1999.90;999.90;;;15.70;99.90;;;;;;5021724;28;20791;-83
2021/08/31 07:27:09;;;;;;;1999.90;999.90;;;15.70;99.90;;;;;;5021579;28;20936;-84
2021/08/31 07:29:35;;;;;;;1999.90;999.90;;;15.60;99.90;;;;;;5038546;28;20439;-83
2021/08/31 07:32:01;;;;;;;1999.90;999.90;;;15.60;99.90;;;;;;5039155;28;20174;-84
2021/08/31 07:34:28;;;;;;;1999.90;999.90;;;15.60;99.90;;;;;;5020682;28;20172;-83
2021/08/31 07:36:55;;;;;;;1999.90;999.90;;;15.60;99.90;;;;;;5038960;28;20561;-83
2021/08/31 07:39:21;;;;;;;1999.90;999.90;;;15.70;99.90;;;;;;5020766;28;20958;-83
2021/08/31 07:41:46;;;;;;;1999.90;999.90;;;15.70;99.90;;;;;;5038890;28;20404;-84
2021/08/31 07:44:12;;;;;;;1999.90;999.90;;;15.70;99.90;;;;;;5038418;28;20629;-83
2021/08/31 07:46:40;;;;;;;1999.90;999.90;;;15.80;99.90;;;;;;5020186;28;20198;-83
2021/08/31 07:49:06;;;;;;;1999.90;999.90;;;15.80;99.90;;;;;;5020746;28;20175;-83
2021/08/31 07:51:32;;;;;;;1999.90;999.90;;;15.90;99.90;;;;;;5039193;28;20498;-83
2021/08/31 07:53:57;;;;;;;1999.90;999.90;;;16.00;99.90;;;;;;5039096;28;20167;-83
2021/08/31 07:56:23;;;;;;;1999.90;999.90;;;16.00;99.90;;;;;;5038096;28;20199;-83
2021/08/31 07:58:49;;;;;;;1999.90;999.90;;;16.00;99.90;;;;;;5020597;28;20637;-84
2021/08/31 08:01:17;;;;;;;1999.90;999.90;;;16.00;99.90;;;;;;5021431;28;20174;-84
2021/08/31 08:03:43;;;;;;;1999.90;999.90;;;16.00;99.90;;;;;;5037909;28;20251;-83
2021/08/31 08:06:09;;;;;;;1999.90;999.90;;;16.00;99.90;;;;;;5038535;28;21004;-82
2021/08/31 08:08:34;;;;;;;1999.90;999.90;;;16.00;99.90;;;;;;5039997;28;20239;-82
2021/08/31 08:11:01;;;;;;;1999.90;999.90;;;16.00;99.90;;;;;;5040052;28;20531;-82
2021/08/31 08:13:27;;;;;;;1999.90;999.90;;;15.90;99.90;;;;;;5021774;28;20519;-81
2021/08/31 08:15:52;;;;;;;1999.90;999.90;;;15.90;99.90;;;;;;5039579;28;20484;-82
2021/08/31 08:18:18;;;;;;;1999.90;999.90;;;16.00;99.90;;;;;;5039957;28;20171;-81
2021/08/31 08:20:45;;;;;;;1999.90;999.90;;;16.00;99.90;;;;;;5039886;28;20197;-82
2021/08/31 08:23:12;;;;;;;1999.90;999.90;;;16.10;99.90;;;;;;5039714;28;20693;-82
2021/08/31 08:25:38;;;;;;;1999.90;999.90;;;16.10;99.90;;;;;;5040049;28;20440;-82
2021/08/31 08:28:04;;;;;;;1999.90;999.90;;;16.20;99.90;;;;;;5040755;28;20412;-82
2021/08/31 08:30:33;;;;;;;1999.90;999.90;;;16.20;99.90;;;;;;5040639;28;20412;-82
2021/08/31 08:32:59;;;;;;;1999.90;999.90;;;16.30;99.90;;;;;;5040641;28;20542;-82
2021/08/31 08:35:28;;;;;;;1999.90;999.90;;;16.30;99.90;;;;;;5040565;28;20408;-82
2021/08/31 08:37:57;;;;;;;1999.90;999.90;;;16.40;99.90;;;;;;5021190;28;20198;-82
2021/08/31 08:40:23;;;;;;;1999.90;999.90;;;16.40;99.90;;;;;;5039188;28;20442;-82
2021/08/31 08:42:52;;;;;;;1999.90;999.90;;;16.30;99.90;;;;;;5020687;28;20479;-82
2021/08/31 08:45:18;;;;;;;1999.90;999.90;;;16.30;99.90;;;;;;5019950;28;20663;-81
2021/08/31 08:47:44;;;;;;;1999.90;999.90;;;16.30;99.90;;;;;;5020623;28;20425;-81
2021/08/31 08:50:10;;;;;;;1999.90;999.90;;;16.30;99.90;;;;;;5039383;28;20765;-81
2021/08/31 08:52:36;;;;;;;1999.90;999.90;;;16.30;99.90;;;;;;5037374;28;20255;-81
2021/08/31 08:55:06;;;;;;;1999.90;999.90;;;16.30;99.90;;;;;;5036525;28;20174;-82
2021/08/31 08:57:31;;;;;;;1999.90;999.90;;;16.30;99.90;;;;;;5021123;28;20437;-82
2021/08/31 08:59:57;;;;;;;1999.90;999.90;;;16.30;99.90;;;;;;5021375;28;20437;-81
2021/08/31 09:02:35;;;;;;;1999.90;999.90;;;16.30;99.90;;;;;;5038294;28;20162;-81
2021/08/31 09:05:02;;;;;;;1999.90;999.90;;;16.30;99.90;;;;;;5038320;28;20904;-81
2021/08/31 09:07:28;;;;;;;1999.90;999.90;;;16.30;99.90;;;;;;5019842;28;20422;-83
2021/08/31 09:10:13;;;;;;;1999.90;999.90;;;16.30;99.90;;;;;;5037903;28;20402;-84
2021/08/31 09:12:41;;;;;;;1999.90;999.90;;;16.20;99.90;;;;;;5020132;28;20401;-83
2021/08/31 09:15:39;;;;;;;1999.90;999.90;;;16.10;99.90;;;;;;5036605;28;20401;-83
2021/08/31 09:18:07;;;;;;;1999.90;999.90;;;16.20;99.90;;;;;;5018190;28;20472;-83
2021/08/31 09:20:55;;;;;;;1999.90;999.90;;;16.30;99.90;;;;;;5018163;28;20441;-83
2021/08/31 09:26:12;;;;;;;1999.90;999.90;;;16.30;99.90;;;;;;5190948;22;20550;-84
2021/08/31 09:28:42;;;;;;;1999.90;999.90;;;16.20;99.90;;;;;;5041324;28;20416;-84
2021/08/31 09:31:15;;;;;;;1999.90;999.90;;;16.10;99.90;;;;;;5040777;28;20411;-84
2021/08/31 09:33:45;;;;;;;1999.90;999.90;;;16.20;99.90;;;;;;5058323;28;20420;-84
2021/08/31 09:36:29;;;;;;;1999.90;999.90;;;16.20;99.90;;;;;;5040731;28;20504;-84
2021/08/31 09:39:05;;;;;;;1999.90;999.90;;;16.20;99.90;;;;;;5057912;28;20378;-84
2021/08/31 09:41:42;;;;;;;1999.90;999.90;;;16.00;99.90;;;;;;5041201;28;20419;-84
2021/08/31 09:44:20;;;;;;;1999.90;999.90;;;16.10;99.90;;;;;;5041589;28;20406;-84
2021/08/31 09:47:01;;;;;;;1999.90;999.90;;;16.10;99.90;;;;;;5041647;28;20449;-84
2021/08/31 09:49:39;;;;;;;1999.90;999.90;;;16.10;99.90;;;;;;5059503;28;20404;-84
2021/08/31 09:52:14;;;;;;;1999.90;999.90;;;16.10;99.90;;;;;;5059611;28;20385;-84
2021/08/31 09:54:43;;;;;;;1999.90;999.90;;;16.00;99.90;;;;;;5041114;28;20404;-84
2021/08/31 09:57:24;;;;;;;1999.90;999.90;;;16.00;99.90;;;;;;5043233;28;20464;-84
2021/08/31 09:59:50;;;;;;;1999.90;999.90;;;16.00;99.90;;;;;;5040818;28;20447;-84
2021/08/31 10:02:16;;;;;;;1999.90;999.90;;;16.00;99.90;;;;;;5041913;28;20743;-84
2021/08/31 10:04:41;;;;;;;1999.90;999.90;;;16.00;99.90;;;;;;5040635;28;20408;-85
2021/08/31 10:07:09;;;;;;;1999.90;999.90;;;16.00;99.90;;;;;;5060378;28;20188;-84
2021/08/31 10:09:37;;;;;;;1999.90;999.90;;;16.10;99.90;;;;;;5058860;28;20200;-84
2021/08/31 10:12:05;;;;;;;1999.90;999.90;;;16.00;99.90;;;;;;5041639;28;20432;-84
2021/08/31 10:14:31;;;;;;;1999.90;999.90;;;16.00;99.90;;;;;;5044239;28;20412;-85
2021/08/31 10:16:57;;;;;;;1999.90;999.90;;;16.10;99.90;;;;;;5059939;28;20431;-84
2021/08/31 10:19:23;;;;;;;1999.90;999.90;;;16.10;99.90;;;;;;5041423;28;20444;-84
2021/08/31 10:21:49;;;;;;;1999.90;999.90;;;16.10;99.90;;;;;;5058605;28;20404;-83
2021/08/31 10:24:15;;;;;;;1999.90;999.90;;;16.30;99.90;;;;;;5059255;28;20394;-84
2021/08/31 10:26:41;;;;;;;1999.90;999.90;;;16.30;99.90;;;;;;5060090;28;20421;-84
2021/08/31 10:29:18;;;;;;;1999.90;999.90;;;16.30;99.90;;;;;;5062360;28;20895;-84
2021/08/31 10:31:55;;;;;;;1999.90;999.90;;;16.40;99.90;;;;;;5044589;28;20627;-84
2021/08/31 10:34:30;;;;;;;1999.90;999.90;;;16.40;99.90;;;;;;5045148;28;20404;-83
2021/08/31 10:37:09;;;;;;;1999.90;999.90;;;16.50;99.90;;;;;;5044111;28;20439;-84
2021/08/31 10:39:45;;;;;;;1999.90;999.90;;;16.50;99.90;;;;;;5043472;28;20497;-84
2021/08/31 10:42:34;;;;;;;1999.90;999.90;;;16.40;99.90;;;;;;5061426;28;20493;-83
2021/08/31 10:45:28;;;;;;;1999.90;999.90;;;16.40;99.90;;;;;;5050676;28;20414;-84
2021/08/31 10:47:53;;;;;;;1999.90;999.90;;;16.50;99.90;;;;;;5062732;28;20392;-84
2021/08/31 10:50:32;;;;;;;1999.90;999.90;;;16.40;99.90;;;;;;5061323;28;20405;-84
2021/08/31 10:53:04;;;;;;;1999.90;999.90;;;16.50;99.90;;;;;;5044061;28;20712;-84
2021/08/31 10:55:33;;;;;;;1999.90;999.90;;;16.60;99.90;;;;;;5043538;28;20399;-84
2021/08/31 10:58:06;;;;;;;1999.90;999.90;;;16.80;99.90;;;;;;5059278;28;20931;-83
2021/08/31 11:00:32;;;;;;;1999.90;999.90;;;17.00;99.90;;;;;;5049080;28;20498;-83
2021/08/31 11:02:59;;;;;;;1999.90;999.90;;;17.10;99.90;;;;;;5061468;28;20800;-83
2021/08/31 11:05:34;;;;;;;1999.90;999.90;;;17.30;99.90;;;;;;5042583;28;20217;-84
2021/08/31 11:08:00;;;;;;;1999.90;999.90;;;17.50;99.90;;;;;;5043021;28;20952;-84
2021/08/31 11:10:31;;;;;;;1999.90;999.90;;;17.70;99.90;;;;;;5062011;28;20407;-84
2021/08/31 11:13:07;;;;;;;1999.90;999.90;;;18.00;99.90;;;;;;5060507;28;20414;-84
2021/08/31 11:15:33;;;;;;;1999.90;999.90;;;18.20;99.90;;;;;;5060420;28;20388;-84
2021/08/31 11:17:59;;;;;;;1999.90;999.90;;;18.50;99.90;;;;;;5060213;28;20487;-84
2021/08/31 11:20:30;;;;;;;1999.90;999.90;;;18.70;99.90;;;;;;5060472;28;20534;-84
2021/08/31 11:23:16;;;;;;;1999.90;999.90;;;19.00;99.90;;;;;;5059828;28;20157;-84
2021/08/31 11:25:48;;;;;;;1999.90;999.90;;;19.30;99.90;;;;;;5042108;28;20438;-84
2021/08/31 11:28:20;;;;;;;1999.90;999.90;;;19.60;99.90;;;;;;5059492;28;20398;-84
2021/08/31 11:30:58;;;;;;;1999.90;999.90;;;19.80;99.90;;;;;;5041843;28;20418;-84
2021/08/31 11:33:33;;;;;;;1999.90;999.90;;;19.90;99.90;;;;;;5059471;28;20467;-84
2021/08/31 11:36:03;;;;;;;1999.90;999.90;;;20.20;99.90;;;;;;5043158;28;20431;-84
2021/08/31 11:38:45;;;;;;;1999.90;999.90;;;20.20;99.90;;;;;;5041827;28;20411;-83
2021/08/31 11:41:33;;;;;;;1999.90;999.90;;;20.20;99.90;;;;;;5059618;28;20391;-84
2021/08/31 11:44:03;;;;;;;1999.90;999.90;;;20.10;99.90;;;;;;5058946;28;20404;-83
2021/08/31 11:46:34;;;;;;;1999.90;999.90;;;20.00;99.90;;;;;;5059188;28;20416;-84
2021/08/31 11:49:26;;;;;;;1999.90;999.90;;;20.00;99.90;;;;;;5040599;28;20425;-83
2021/08/31 11:51:55;;;;;;;1999.90;999.90;;;20.20;99.90;;;;;;5040302;28;20995;-83
2021/08/31 11:54:23;;;;;;;1999.90;999.90;;;20.50;99.90;;;;;;5040666;28;20407;-83
2021/08/31 11:56:59;;;;;;;1999.90;999.90;;;20.70;99.90;;;;;;5041553;28;20926;-84
2021/08/31 11:59:48;;;;;;;1999.90;999.90;;;20.60;99.90;;;;;;5042648;28;20515;-84
2021/08/31 12:02:26;;;;;;;1999.90;999.90;;;20.80;99.90;;;;;;5041879;28;20407;-84
2021/08/31 12:04:57;;;;;;;1999.90;999.90;;;20.80;99.90;;;;;;5058729;28;20409;-84
2021/08/31 12:07:31;;;;;;;1999.90;999.90;;;21.00;99.90;;;;;;5059691;28;20415;-84